createdAt,value
2023-10-07T00:01:46.680Z,15.49
2023-10-07T00:04:10.643Z,15.38
2023-10-07T00:06:31.370Z,15.23
2023-10-07T00:08:52.321Z,15.18
2023-10-07T00:11:13.456Z,15.13
2023-10-07T00:13:34.509Z,15.08
2023-10-07T00:15:55.033Z,14.93
2023-10-07T00:18:19.965Z,14.88
2023-10-07T00:20:57.521Z,14.68
2023-10-07T00:23:23.160Z,14.67
2023-10-07T00:25:49.866Z,14.55
2023-10-07T00:28:19.663Z,14.41
2023-10-07T00:30:40.526Z,14.36
2023-10-07T00:33:03.734Z,14.36
2023-10-07T00:35:25.329Z,14.39
2023-10-07T00:37:46.209Z,14.44
2023-10-07T00:40:31.882Z,14.55
2023-10-07T00:42:53.664Z,14.52
2023-10-07T00:45:17.809Z,14.58
2023-10-07T00:47:41.701Z,14.60
2023-10-07T00:50:02.612Z,14.62
2023-10-07T00:52:34.516Z,14.63
2023-10-07T00:55:18.604Z,14.56
2023-10-07T00:57:48.809Z,14.61
2023-10-07T01:00:28.400Z,14.57
2023-10-07T01:02:53.293Z,14.53
2023-10-07T01:05:15.089Z,14.52
2023-10-07T01:07:36.323Z,14.54
2023-10-07T01:10:13.133Z,14.50
2023-10-07T01:12:37.962Z,14.35
2023-10-07T01:14:59.056Z,14.46
2023-10-07T01:17:31.968Z,14.46
2023-10-07T01:19:56.088Z,14.38
2023-10-07T01:22:20.402Z,14.34
2023-10-07T01:24:40.863Z,14.24
2023-10-07T01:27:19.773Z,14.27
2023-10-07T01:29:43.262Z,14.25
2023-10-07T01:32:16.964Z,14.07
2023-10-07T01:34:37.571Z,13.77
2023-10-07T01:37:02.118Z,13.81
2023-10-07T01:39:23.874Z,13.92
2023-10-07T01:41:46.903Z,13.99
2023-10-07T01:44:07.671Z,14.00
2023-10-07T01:46:32.297Z,14.04
2023-10-07T01:48:56.833Z,14.06
2023-10-07T01:51:18.992Z,14.01
2023-10-07T01:53:39.796Z,14.12
2023-10-07T01:56:05.967Z,14.09
2023-10-07T01:58:27.056Z,14.07
2023-10-07T02:00:53.020Z,14.00
2023-10-07T02:03:18.159Z,14.00
2023-10-07T02:05:42.273Z,14.04
2023-10-07T02:08:04.079Z,13.96
2023-10-07T02:10:27.324Z,13.91
2023-10-07T02:12:48.170Z,13.87
2023-10-07T02:15:20.428Z,13.91
2023-10-07T02:17:41.358Z,13.88
2023-10-07T02:20:22.333Z,13.88
2023-10-07T02:22:45.910Z,13.94
2023-10-07T02:25:08.594Z,13.90
2023-10-07T02:27:30.204Z,13.97
2023-10-07T02:29:57.693Z,13.97
2023-10-07T02:32:18.924Z,13.93
2023-10-07T02:34:52.342Z,13.97
2023-10-07T02:37:13.189Z,13.88
2023-10-07T02:39:49.115Z,13.83
2023-10-07T02:42:11.358Z,13.78
2023-10-07T02:44:32.491Z,13.81
2023-10-07T02:46:57.400Z,13.78
2023-10-07T02:49:21.958Z,13.59
2023-10-07T02:51:50.519Z,13.48
2023-10-07T02:54:21.723Z,13.47
2023-10-07T02:56:45.865Z,13.52
2023-10-07T02:59:23.435Z,13.45
2023-10-07T03:01:59.459Z,13.39
2023-10-07T03:04:23.779Z,13.27
2023-10-07T03:06:47.616Z,13.14
2023-10-07T03:09:19.649Z,13.10
2023-10-07T03:11:50.169Z,13.07
2023-10-07T03:14:14.933Z,13.17
2023-10-07T03:16:44.508Z,13.12
2023-10-07T03:19:05.084Z,13.13
2023-10-07T03:21:45.936Z,13.03
2023-10-07T03:24:14.775Z,13.05
2023-10-07T03:26:35.811Z,13.11
2023-10-07T03:28:56.851Z,13.11
2023-10-07T03:31:21.075Z,13.13
2023-10-07T03:33:53.290Z,13.10
2023-10-07T03:36:24.271Z,13.12
2023-10-07T03:38:44.937Z,13.08
2023-10-07T03:41:10.789Z,13.02
2023-10-07T03:43:33.936Z,12.97
2023-10-07T03:45:58.130Z,13.01
2023-10-07T03:48:25.397Z,13.09
2023-10-07T03:50:46.070Z,13.16
2023-10-07T03:53:06.730Z,13.06
2023-10-07T03:55:29.918Z,13.02
2023-10-07T03:57:50.679Z,13.04
2023-10-07T04:00:12.625Z,13.07
2023-10-07T04:02:36.685Z,13.18
2023-10-07T04:05:02.013Z,13.19
2023-10-07T04:07:23.003Z,13.04
2023-10-07T04:09:44.272Z,12.99
2023-10-07T04:12:07.248Z,12.94
2023-10-07T04:14:32.082Z,13.04
2023-10-07T04:16:53.662Z,13.16
2023-10-07T04:19:17.267Z,13.19
2023-10-07T04:21:40.896Z,13.13
2023-10-07T04:24:02.296Z,12.97
2023-10-07T04:26:23.575Z,12.83
2023-10-07T04:28:44.077Z,12.64
2023-10-07T04:31:10.902Z,12.61
2023-10-07T04:33:40.680Z,12.65
2023-10-07T04:36:05.642Z,12.66
2023-10-07T04:38:26.328Z,12.69
2023-10-07T04:41:15.565Z,12.68
2023-10-07T04:43:49.828Z,12.65
2023-10-07T04:46:23.459Z,12.55
2023-10-07T04:48:55.521Z,12.56
2023-10-07T04:51:25.140Z,12.45
2023-10-07T04:53:58.644Z,12.38
2023-10-07T04:56:22.568Z,12.36
2023-10-07T04:58:45.405Z,12.43
2023-10-07T05:01:32.141Z,12.57
2023-10-07T05:03:56.710Z,12.70
2023-10-07T05:06:17.484Z,12.75
2023-10-07T05:08:39.097Z,12.72
2023-10-07T05:11:06.957Z,12.76
2023-10-07T05:13:27.861Z,12.64
2023-10-07T05:15:48.775Z,12.61
2023-10-07T05:18:14.058Z,12.75
2023-10-07T05:20:38.476Z,12.69
2023-10-07T05:23:01.827Z,12.59
2023-10-07T05:25:23.253Z,12.57
2023-10-07T05:27:45.420Z,12.61
2023-10-07T05:30:08.844Z,12.70
2023-10-07T05:32:29.698Z,12.91
2023-10-07T05:34:50.825Z,12.95
2023-10-07T05:37:15.207Z,12.95
2023-10-07T05:39:35.867Z,12.70
2023-10-07T05:41:57.525Z,12.58
2023-10-07T05:44:18.418Z,12.43
2023-10-07T05:46:39.172Z,12.36
2023-10-07T05:49:00.257Z,12.55
2023-10-07T05:51:21.334Z,12.42
2023-10-07T05:53:52.847Z,12.52
2023-10-07T05:56:13.612Z,12.60
2023-10-07T05:58:38.227Z,12.52
2023-10-07T06:00:59.572Z,12.58
2023-10-07T06:03:20.632Z,12.71
2023-10-07T06:05:41.627Z,12.81
2023-10-07T06:08:02.546Z,12.78
2023-10-07T06:10:25.210Z,13.05
2023-10-07T06:12:46.092Z,12.92
2023-10-07T06:15:09.715Z,13.10
2023-10-07T06:17:30.547Z,13.03
2023-10-07T06:19:52.727Z,13.18
2023-10-07T06:22:13.668Z,13.23
2023-10-07T06:24:34.542Z,13.37
2023-10-07T06:26:55.330Z,13.53
2023-10-07T06:29:20.208Z,13.67
2023-10-07T06:31:42.383Z,13.72
2023-10-07T06:34:13.472Z,13.89
2023-10-07T06:36:34.246Z,13.98
2023-10-07T06:38:59.670Z,14.07
2023-10-07T06:41:21.178Z,14.16
2023-10-07T06:43:43.989Z,14.41
2023-10-07T06:46:12.183Z,14.54
2023-10-07T06:48:33.312Z,14.66
2023-10-07T06:50:54.273Z,14.78
2023-10-07T06:53:22.305Z,14.96
2023-10-07T06:55:44.665Z,15.06
2023-10-07T06:58:07.885Z,15.29
2023-10-07T07:00:48.395Z,15.35
2023-10-07T07:03:11.670Z,15.44
2023-10-07T07:05:36.264Z,15.45
2023-10-07T07:07:57.360Z,15.83
2023-10-07T07:10:18.272Z,16.02
2023-10-07T07:12:39.246Z,16.08
2023-10-07T07:15:06.681Z,16.34
2023-10-07T07:17:30.658Z,16.43
2023-10-07T07:20:12.902Z,16.17
2023-10-07T07:22:36.007Z,16.38
2023-10-07T07:24:56.816Z,16.54
2023-10-07T07:27:18.438Z,16.60
2023-10-07T07:29:39.422Z,16.40
2023-10-07T07:32:00.292Z,16.91
2023-10-07T07:34:26.070Z,17.04
2023-10-07T07:36:49.512Z,17.16
2023-10-07T07:39:11.268Z,17.49
2023-10-07T07:41:36.049Z,17.57
2023-10-07T07:44:00.551Z,17.74
2023-10-07T07:46:39.933Z,17.64
2023-10-07T07:49:07.488Z,17.48
2023-10-07T07:51:28.297Z,18.09
2023-10-07T07:53:49.322Z,18.10
2023-10-07T07:56:13.941Z,18.20
2023-10-07T07:58:34.535Z,18.01
2023-10-07T08:01:05.762Z,18.00
2023-10-07T08:03:26.902Z,18.36
2023-10-07T08:05:48.402Z,17.86
2023-10-07T08:08:25.655Z,18.30
2023-10-07T08:10:47.936Z,18.35
2023-10-07T08:13:08.736Z,18.64
2023-10-07T08:15:40.107Z,18.84
2023-10-07T08:18:07.838Z,18.53
2023-10-07T08:20:41.668Z,18.64
2023-10-07T08:23:08.762Z,18.78
2023-10-07T08:25:38.384Z,19.02
2023-10-07T08:28:15.510Z,18.77
2023-10-07T08:30:39.348Z,19.20
2023-10-07T08:33:02.341Z,18.73
2023-10-07T08:35:27.078Z,19.34
2023-10-07T08:37:48.740Z,19.52
2023-10-07T08:40:19.603Z,19.56
2023-10-07T08:42:47.179Z,19.80
2023-10-07T08:45:15.575Z,19.59
2023-10-07T08:47:44.843Z,19.33
2023-10-07T08:50:08.013Z,20.04
2023-10-07T08:52:30.997Z,19.83
2023-10-07T08:54:52.918Z,19.79
2023-10-07T08:57:17.867Z,19.86
2023-10-07T08:59:39.272Z,20.40
2023-10-07T09:02:14.051Z,20.61
2023-10-07T09:04:35.176Z,20.56
2023-10-07T09:06:55.590Z,20.19
2023-10-07T09:09:33.492Z,21.01
2023-10-07T09:11:55.263Z,20.86
2023-10-07T09:14:19.587Z,20.37
2023-10-07T09:16:42.133Z,20.66
2023-10-07T09:19:14.111Z,20.76
2023-10-07T09:21:35.248Z,21.71
2023-10-07T09:24:03.496Z,21.83
2023-10-07T09:26:31.485Z,20.80
2023-10-07T09:29:21.039Z,21.59
2023-10-07T09:31:43.512Z,22.08
2023-10-07T09:34:10.783Z,21.36
2023-10-07T09:36:31.927Z,21.80
2023-10-07T09:39:17.716Z,22.00
2023-10-07T09:41:38.967Z,21.35
2023-10-07T09:44:01.319Z,21.57
2023-10-07T09:46:38.355Z,22.33
2023-10-07T09:48:59.386Z,22.05
2023-10-07T09:51:35.810Z,22.21
2023-10-07T09:54:23.503Z,22.64
2023-10-07T09:57:15.562Z,23.24
2023-10-07T09:59:41.220Z,23.25
2023-10-07T10:02:26.971Z,23.25
2023-10-07T10:05:06.016Z,22.57
2023-10-07T10:07:45.185Z,21.74
2023-10-07T10:13:03.228Z,22.69
2023-10-07T10:15:37.961Z,21.94
2023-10-07T10:18:03.304Z,21.95
2023-10-07T10:20:28.987Z,22.64
2023-10-07T10:22:53.915Z,22.83
2023-10-07T10:25:18.176Z,23.15
2023-10-07T10:27:45.710Z,22.17
2023-10-07T10:30:07.321Z,22.18
2023-10-07T10:32:29.945Z,22.71
2023-10-07T10:34:51.428Z,22.96
2023-10-07T10:37:11.931Z,22.88
2023-10-07T10:39:41.387Z,22.73
2023-10-07T10:42:10.948Z,22.48
2023-10-07T10:44:41.038Z,22.64
2023-10-07T10:47:01.508Z,21.82
2023-10-07T10:49:22.439Z,22.08
2023-10-07T10:51:47.051Z,22.64
2023-10-07T10:54:07.908Z,22.64
2023-10-07T10:56:28.423Z,21.86
2023-10-07T10:58:56.450Z,21.43
2023-10-07T11:01:17.855Z,21.34
2023-10-07T11:03:39.276Z,21.81
2023-10-07T11:06:01.401Z,22.49
2023-10-07T11:08:26.013Z,22.50
2023-10-07T11:10:49.504Z,21.51
2023-10-07T11:13:10.188Z,22.46
2023-10-07T11:15:31.002Z,21.80
2023-10-07T11:17:55.832Z,22.53
2023-10-07T11:20:20.715Z,22.15
2023-10-07T11:22:43.463Z,23.05
2023-10-07T11:25:05.345Z,22.46
2023-10-07T11:27:28.051Z,22.88
2023-10-07T11:29:59.248Z,22.55
2023-10-07T11:32:30.595Z,23.43
2023-10-07T11:34:51.632Z,23.82
2023-10-07T11:37:14.471Z,23.15
2023-10-07T11:39:39.983Z,23.22
2023-10-07T11:42:02.581Z,23.05
2023-10-07T11:44:24.056Z,23.32
2023-10-07T11:46:45.703Z,23.22
2023-10-07T11:49:06.076Z,22.78
2023-10-07T11:51:28.657Z,22.66
2023-10-07T11:53:50.057Z,22.70
2023-10-07T11:56:13.066Z,23.26
2023-10-07T11:58:34.380Z,22.66
2023-10-07T12:00:56.480Z,22.78
2023-10-07T12:03:18.598Z,23.15
2023-10-07T12:05:44.819Z,23.45
2023-10-07T12:08:05.813Z,23.74
2023-10-07T12:10:29.090Z,23.24
2023-10-07T12:12:53.237Z,22.75
2023-10-07T12:15:17.181Z,23.55
2023-10-07T12:17:38.167Z,24.13
2023-10-07T12:19:59.563Z,24.13
2023-10-07T12:22:20.304Z,23.57
2023-10-07T12:24:43.199Z,23.92
2023-10-07T12:27:03.765Z,24.54
2023-10-07T12:29:27.349Z,23.71
2023-10-07T12:31:49.032Z,23.93
2023-10-07T12:34:11.202Z,23.01
2023-10-07T12:36:32.023Z,23.63
2023-10-07T12:38:52.703Z,23.25
2023-10-07T12:41:16.267Z,23.86
2023-10-07T12:43:39.166Z,24.09
2023-10-07T12:46:03.720Z,24.17
2023-10-07T12:48:24.238Z,24.61
2023-10-07T12:50:44.668Z,24.05
2023-10-07T12:53:05.965Z,24.22
2023-10-07T12:55:32.586Z,24.73
2023-10-07T12:57:53.477Z,24.98
2023-10-07T13:00:23.295Z,24.33
2023-10-07T13:02:45.382Z,24.49
2023-10-07T13:05:10.358Z,24.65
2023-10-07T13:07:30.750Z,25.03
2023-10-07T13:09:51.305Z,24.59
2023-10-07T13:12:16.935Z,24.82
2023-10-07T13:14:37.703Z,24.25
2023-10-07T13:16:59.015Z,24.20
2023-10-07T13:19:21.496Z,23.37
2023-10-07T13:21:42.922Z,23.91
2023-10-07T13:24:08.983Z,24.07
2023-10-07T13:26:32.146Z,24.29
2023-10-07T13:28:55.570Z,24.59
2023-10-07T13:31:18.335Z,24.35
2023-10-07T13:33:39.272Z,24.87
2023-10-07T13:36:02.481Z,24.64
2023-10-07T13:38:26.311Z,24.10
2023-10-07T13:40:47.038Z,24.24
2023-10-07T13:43:08.616Z,24.76
2023-10-07T13:45:32.150Z,25.08
2023-10-07T13:47:53.288Z,24.22
2023-10-07T13:50:16.818Z,25.06
2023-10-07T13:52:47.133Z,23.87
2023-10-07T13:55:23.682Z,24.05
2023-10-07T13:57:44.101Z,23.82
2023-10-07T14:00:24.798Z,24.10
2023-10-07T14:02:45.760Z,24.55
2023-10-07T14:05:07.037Z,24.82
2023-10-07T14:07:28.204Z,24.96
2023-10-07T14:09:50.496Z,24.51
2023-10-07T14:12:11.243Z,24.53
2023-10-07T14:14:32.374Z,24.41
2023-10-07T14:16:59.705Z,24.63
2023-10-07T14:19:21.671Z,25.09
2023-10-07T14:21:42.550Z,25.07
2023-10-07T14:24:04.834Z,24.99
2023-10-07T14:26:26.161Z,24.43
2023-10-07T14:28:47.200Z,24.74
2023-10-07T14:31:09.879Z,24.68
2023-10-07T14:33:31.592Z,24.50
2023-10-07T14:35:55.701Z,24.57
2023-10-07T14:38:16.548Z,24.09
2023-10-07T14:40:42.891Z,24.35
2023-10-07T14:43:05.421Z,24.25
2023-10-07T14:45:26.340Z,24.57
2023-10-07T14:47:47.479Z,24.38
2023-10-07T14:50:08.796Z,24.85
2023-10-07T14:52:29.242Z,24.68
2023-10-07T14:54:49.768Z,24.83
2023-10-07T14:57:11.454Z,24.20
2023-10-07T14:59:34.658Z,24.12
2023-10-07T15:01:55.667Z,24.71
2023-10-07T15:04:18.772Z,24.72
2023-10-07T15:06:39.742Z,24.51
2023-10-07T15:09:00.700Z,24.44
2023-10-07T15:11:22.843Z,24.40
2023-10-07T15:13:44.210Z,24.36
2023-10-07T15:16:12.583Z,24.39
2023-10-07T15:18:34.121Z,24.12
2023-10-07T15:21:06.374Z,23.92
2023-10-07T15:23:26.796Z,24.46
2023-10-07T15:25:47.344Z,24.56
2023-10-07T15:28:08.108Z,24.37
2023-10-07T15:30:28.547Z,24.37
2023-10-07T15:32:48.902Z,24.28
2023-10-07T15:35:09.569Z,24.09
2023-10-07T15:37:31.283Z,24.32
2023-10-07T15:39:52.237Z,24.49
2023-10-07T15:42:13.621Z,24.67
2023-10-07T15:44:34.096Z,24.39
2023-10-07T15:46:54.663Z,24.60
2023-10-07T15:49:15.779Z,24.50
2023-10-07T15:51:40.096Z,24.63
2023-10-07T15:54:00.965Z,24.54
2023-10-07T15:56:22.336Z,24.45
2023-10-07T15:58:44.129Z,24.37
2023-10-07T16:01:05.809Z,24.30
2023-10-07T16:03:27.311Z,24.26
2023-10-07T16:05:49.272Z,24.26
2023-10-07T16:08:11.874Z,24.22
2023-10-07T16:10:37.933Z,24.15
2023-10-07T16:12:59.150Z,24.04
2023-10-07T16:15:19.953Z,23.93
2023-10-07T16:17:41.809Z,23.89
2023-10-07T16:20:02.717Z,23.94
2023-10-07T16:22:23.558Z,23.78
2023-10-07T16:24:45.122Z,23.68
2023-10-07T16:27:05.973Z,23.61
2023-10-07T16:29:26.969Z,23.49
2023-10-07T16:31:48.771Z,23.53
2023-10-07T16:34:09.893Z,23.41
2023-10-07T16:36:31.607Z,23.41
2023-10-07T16:38:53.681Z,23.40
2023-10-07T16:41:18.024Z,23.39
2023-10-07T16:43:38.874Z,23.42
2023-10-07T16:46:04.114Z,23.45
2023-10-07T16:48:25.199Z,23.37
2023-10-07T16:50:56.467Z,23.34
2023-10-07T16:53:17.187Z,23.27
2023-10-07T16:55:39.316Z,23.22
2023-10-07T16:58:00.213Z,23.08
2023-10-07T17:00:20.867Z,22.96
2023-10-07T17:02:41.912Z,22.89
2023-10-07T17:05:03.801Z,22.70
2023-10-07T17:07:25.743Z,22.72
2023-10-07T17:09:46.370Z,22.57
2023-10-07T17:12:07.467Z,22.44
2023-10-07T17:14:28.005Z,22.30
2023-10-07T17:16:49.355Z,22.13
2023-10-07T17:19:13.718Z,22.12
2023-10-07T17:21:34.683Z,22.14
2023-10-07T17:23:55.104Z,22.15
2023-10-07T17:26:15.608Z,22.30
2023-10-07T17:28:36.910Z,22.25
2023-10-07T17:30:57.616Z,22.35
2023-10-07T17:33:18.077Z,22.40
2023-10-07T17:35:43.469Z,22.38
2023-10-07T17:38:05.621Z,22.37
2023-10-07T17:40:26.901Z,22.27
2023-10-07T17:42:48.295Z,22.18
2023-10-07T17:45:16.319Z,22.06
2023-10-07T17:47:36.920Z,22.06
2023-10-07T17:49:57.884Z,21.85
2023-10-07T17:52:18.372Z,21.79
2023-10-07T17:54:39.167Z,21.75
2023-10-07T17:56:59.816Z,21.70
2023-10-07T17:59:20.559Z,21.74
2023-10-07T18:01:41.448Z,21.60
2023-10-07T18:04:03.793Z,21.61
2023-10-07T18:06:24.520Z,21.57
2023-10-07T18:08:45.301Z,21.60
2023-10-07T18:11:06.557Z,21.64
2023-10-07T18:13:27.371Z,21.58
2023-10-07T18:15:47.828Z,21.56
2023-10-07T18:18:08.703Z,21.63
2023-10-07T18:20:29.829Z,21.67
2023-10-07T18:22:54.828Z,21.76
2023-10-07T18:25:15.378Z,21.76
2023-10-07T18:27:36.123Z,21.82
2023-10-07T18:29:56.805Z,21.81
2023-10-07T18:32:19.066Z,21.75
2023-10-07T18:34:40.093Z,21.77
2023-10-07T18:37:01.201Z,21.69
2023-10-07T18:39:22.012Z,21.75
2023-10-07T18:41:43.461Z,21.64
2023-10-07T18:44:04.792Z,21.62
2023-10-07T18:46:25.443Z,21.43
2023-10-07T18:48:46.419Z,21.50
2023-10-07T18:51:08.352Z,21.42
2023-10-07T18:53:28.799Z,21.36
2023-10-07T18:55:56.095Z,21.42
2023-10-07T18:58:17.026Z,21.37
2023-10-07T19:00:38.468Z,21.50
2023-10-07T19:02:59.753Z,21.46
2023-10-07T19:05:20.485Z,21.37
2023-10-07T19:07:42.789Z,21.55
2023-10-07T19:10:04.125Z,21.51
2023-10-07T19:12:25.002Z,21.45
2023-10-07T19:14:47.614Z,21.49
2023-10-07T19:17:09.933Z,21.38
2023-10-07T19:19:31.327Z,21.56
2023-10-07T19:21:52.171Z,21.50
2023-10-07T19:24:13.091Z,21.49
2023-10-07T19:26:34.281Z,21.45
2023-10-07T19:28:55.244Z,21.45
2023-10-07T19:31:18.568Z,21.41
2023-10-07T19:33:40.269Z,21.23
2023-10-07T19:36:04.290Z,21.12
2023-10-07T19:38:26.183Z,21.16
2023-10-07T19:40:51.106Z,21.17
2023-10-07T19:43:11.912Z,21.20
2023-10-07T19:45:33.695Z,21.11
2023-10-07T19:47:57.945Z,21.04
2023-10-07T19:50:18.982Z,21.05
2023-10-07T19:52:40.115Z,21.11
2023-10-07T19:55:00.872Z,21.05
2023-10-07T19:57:24.178Z,21.05
2023-10-07T19:59:44.975Z,21.04
2023-10-07T20:02:07.042Z,20.97
2023-10-07T20:04:27.708Z,20.80
2023-10-07T20:06:48.905Z,20.84
2023-10-07T20:09:11.288Z,20.86
2023-10-07T20:11:33.456Z,20.99
2023-10-07T20:13:54.967Z,21.11
2023-10-07T20:16:16.926Z,21.05
2023-10-07T20:18:37.616Z,21.09
2023-10-07T20:21:01.880Z,20.95
2023-10-07T20:23:22.618Z,20.94
2023-10-07T20:25:43.303Z,20.97
2023-10-07T20:28:04.847Z,20.99
2023-10-07T20:30:25.772Z,21.01
2023-10-07T20:32:48.299Z,20.93
2023-10-07T20:35:11.425Z,21.32
2023-10-07T20:37:32.430Z,21.41
2023-10-07T20:39:53.114Z,21.50
2023-10-07T20:42:13.814Z,21.77
2023-10-07T20:44:34.373Z,21.63
2023-10-07T20:46:55.040Z,22.07
2023-10-07T20:49:15.967Z,22.25
2023-10-07T20:51:36.666Z,21.92
2023-10-07T20:53:57.583Z,22.04
2023-10-07T20:56:23.290Z,22.51
2023-10-07T20:58:44.083Z,22.57
2023-10-07T21:01:07.414Z,22.41
2023-10-07T21:03:28.316Z,22.61
2023-10-07T21:05:49.139Z,22.68
2023-10-07T21:08:09.841Z,22.53
2023-10-07T21:10:30.311Z,22.55
2023-10-07T21:12:50.797Z,22.54
2023-10-07T21:15:11.653Z,22.40
2023-10-07T21:17:32.047Z,22.87
2023-10-07T21:19:53.078Z,22.72
2023-10-07T21:22:13.645Z,22.90
2023-10-07T21:24:34.458Z,22.66
2023-10-07T21:26:56.988Z,22.93
2023-10-07T21:29:17.780Z,23.05
2023-10-07T21:31:38.234Z,23.13
2023-10-07T21:33:59.092Z,23.18
2023-10-07T21:36:19.765Z,23.07
2023-10-07T21:38:40.606Z,22.81
2023-10-07T21:41:01.777Z,22.91
2023-10-07T21:43:22.316Z,23.03
2023-10-07T21:45:42.960Z,22.94
2023-10-07T21:48:04.751Z,23.17
2023-10-07T21:50:28.988Z,23.25
2023-10-07T21:52:49.932Z,23.34
2023-10-07T21:55:11.465Z,23.06
2023-10-07T21:57:32.562Z,23.11
2023-10-07T21:59:53.110Z,23.17
2023-10-07T22:02:13.833Z,23.07
2023-10-07T22:04:34.314Z,22.28
2023-10-07T22:06:55.325Z,22.68
2023-10-07T22:09:19.368Z,22.93
2023-10-07T22:11:40.753Z,23.08
2023-10-07T22:14:05.912Z,23.12
2023-10-07T22:16:27.546Z,23.01
2023-10-07T22:18:48.265Z,23.01
2023-10-07T22:21:11.900Z,22.99
2023-10-07T22:23:34.554Z,23.09
2023-10-07T22:25:57.878Z,22.79
2023-10-07T22:28:22.749Z,22.87
2023-10-07T22:30:50.807Z,22.72
2023-10-07T22:33:14.072Z,22.78
2023-10-07T22:35:41.516Z,22.85
2023-10-07T22:38:10.037Z,22.68
2023-10-07T22:40:33.466Z,22.61
2023-10-07T22:42:55.106Z,22.33
2023-10-07T22:45:19.268Z,22.15
2023-10-07T22:47:40.223Z,22.08
2023-10-07T22:50:01.663Z,21.88
2023-10-07T22:52:22.170Z,21.82
2023-10-07T22:54:50.899Z,21.86
2023-10-07T22:57:15.055Z,21.79
2023-10-07T22:59:39.300Z,21.48
2023-10-07T23:02:00.790Z,21.49
2023-10-07T23:04:22.878Z,21.28
2023-10-07T23:07:04.056Z,21.31
2023-10-07T23:09:38.183Z,21.50
2023-10-07T23:12:04.358Z,21.51
2023-10-07T23:14:26.841Z,21.61
2023-10-07T23:16:54.989Z,21.65
2023-10-07T23:19:17.707Z,21.71
2023-10-07T23:21:56.988Z,21.67
2023-10-07T23:24:36.134Z,21.72
2023-10-07T23:26:58.428Z,21.65
2023-10-07T23:29:19.205Z,21.51
2023-10-07T23:31:43.880Z,21.39
2023-10-07T23:34:24.759Z,21.08
2023-10-07T23:36:45.505Z,21.12
2023-10-07T23:39:20.072Z,21.20
2023-10-07T23:41:41.289Z,21.22
2023-10-07T23:44:02.257Z,21.34
2023-10-07T23:46:22.892Z,21.19
2023-10-07T23:48:47.782Z,21.44
2023-10-07T23:51:14.297Z,21.63
2023-10-07T23:53:37.418Z,21.84
2023-10-07T23:56:12.557Z,21.96
2023-10-07T23:58:52.113Z,21.98
